sensor_id;sensor_type;location;lat;lon;timestamp;pressure;altitude;pressure_sealevel;temperature;humidity
61086;BME280;46967;48.876;2.136;2024-02-14T00:01:19;101571.44;;;35.69;17.27
61086;BME280;46967;48.876;2.136;2024-02-14T00:03:45;101559.31;;;35.22;17.80
61086;BME280;46967;48.876;2.136;2024-02-14T00:06:10;101571.38;;;35.84;17.17
61086;BME280;46967;48.876;2.136;2024-02-14T00:08:37;101575.81;;;36.48;16.63
61086;BME280;46967;48.876;2.136;2024-02-14T00:11:03;101570.75;;;36.38;16.89
61086;BME280;46967;48.876;2.136;2024-02-14T00:13:28;101583.44;;;36.16;16.97
61086;BME280;46967;48.876;2.136;2024-02-14T00:15:54;101577.81;;;36.39;16.88
61086;BME280;46967;48.876;2.136;2024-02-14T00:18:19;101589.38;;;35.55;17.47
61086;BME280;46967;48.876;2.136;2024-02-14T00:20:46;101587.03;;;35.73;17.78
61086;BME280;46967;48.876;2.136;2024-02-14T00:23:11;101598.31;;;36.27;17.08
61086;BME280;46967;48.876;2.136;2024-02-14T00:25:37;101597.66;;;36.88;16.52
61086;BME280;46967;48.876;2.136;2024-02-14T00:28:02;101601.06;;;37.17;16.35
61086;BME280;46967;48.876;2.136;2024-02-14T00:30:29;101604.47;;;36.21;16.84
61086;BME280;46967;48.876;2.136;2024-02-14T00:32:55;101612.31;;;36.72;16.65
61086;BME280;46967;48.876;2.136;2024-02-14T00:35:21;101604.03;;;37.22;16.01
61086;BME280;46967;48.876;2.136;2024-02-14T00:37:46;101603.06;;;36.95;16.57
61086;BME280;46967;48.876;2.136;2024-02-14T00:40:11;101604.06;;;35.96;17.37
61086;BME280;46967;48.876;2.136;2024-02-14T00:42:37;101599.56;;;36.03;17.24
61086;BME280;46967;48.876;2.136;2024-02-14T00:45:03;101605.34;;;36.00;17.53
61086;BME280;46967;48.876;2.136;2024-02-14T00:47:28;101606.03;;;34.92;18.56
61086;BME280;46967;48.876;2.136;2024-02-14T00:49:53;101604.19;;;36.09;17.44
61086;BME280;46967;48.876;2.136;2024-02-14T00:52:19;101600.94;;;35.70;17.68
61086;BME280;46967;48.876;2.136;2024-02-14T00:54:46;101601.22;;;35.76;17.62
61086;BME280;46967;48.876;2.136;2024-02-14T00:57:12;101599.84;;;36.36;17.07
61086;BME280;46967;48.876;2.136;2024-02-14T00:59:37;101605.38;;;36.56;17.16
61086;BME280;46967;48.876;2.136;2024-02-14T01:02:04;101608.44;;;36.82;16.97
61086;BME280;46967;48.876;2.136;2024-02-14T01:04:29;101597.53;;;36.68;17.00
61086;BME280;46967;48.876;2.136;2024-02-14T01:06:55;101606.34;;;36.77;17.15
61086;BME280;46967;48.876;2.136;2024-02-14T01:09:20;101590.34;;;36.82;16.82
61086;BME280;46967;48.876;2.136;2024-02-14T01:11:45;101597.50;;;35.40;18.12
61086;BME280;46967;48.876;2.136;2024-02-14T01:14:11;101587.31;;;36.29;17.27
61086;BME280;46967;48.876;2.136;2024-02-14T01:16:43;101588.41;;;36.34;17.41
61086;BME280;46967;48.876;2.136;2024-02-14T01:19:09;101588.75;;;36.59;17.25
61086;BME280;46967;48.876;2.136;2024-02-14T01:21:35;101588.47;;;35.69;17.90
61086;BME280;46967;48.876;2.136;2024-02-14T01:24:00;101598.63;;;36.17;17.43
61086;BME280;46967;48.876;2.136;2024-02-14T01:26:25;101605.00;;;36.09;17.66
61086;BME280;46967;48.876;2.136;2024-02-14T01:28:51;101607.66;;;36.94;16.93
61086;BME280;46967;48.876;2.136;2024-02-14T01:31:16;101612.47;;;36.99;16.71
61086;BME280;46967;48.876;2.136;2024-02-14T01:33:42;101618.22;;;37.31;16.67
61086;BME280;46967;48.876;2.136;2024-02-14T01:36:08;101625.34;;;36.62;16.98
61086;BME280;46967;48.876;2.136;2024-02-14T01:38:34;101627.00;;;36.28;17.37
61086;BME280;46967;48.876;2.136;2024-02-14T01:41:02;101619.81;;;37.19;16.58
61086;BME280;46967;48.876;2.136;2024-02-14T01:43:28;101629.66;;;37.26;16.68
61086;BME280;46967;48.876;2.136;2024-02-14T01:45:53;101621.41;;;36.65;17.29
61086;BME280;46967;48.876;2.136;2024-02-14T01:48:18;101629.88;;;36.83;17.11
61086;BME280;46967;48.876;2.136;2024-02-14T01:50:44;101640.34;;;36.65;16.99
61086;BME280;46967;48.876;2.136;2024-02-14T01:53:11;101641.91;;;37.22;16.59
61086;BME280;46967;48.876;2.136;2024-02-14T01:55:36;101638.94;;;37.17;16.81
61086;BME280;46967;48.876;2.136;2024-02-14T01:58:02;101643.59;;;37.23;16.37
61086;BME280;46967;48.876;2.136;2024-02-14T02:00:30;101649.88;;;37.44;16.19
61086;BME280;46967;48.876;2.136;2024-02-14T02:02:56;101645.97;;;37.53;16.37
61086;BME280;46967;48.876;2.136;2024-02-14T02:05:22;101626.22;;;37.11;16.81
61086;BME280;46967;48.876;2.136;2024-02-14T02:07:47;101618.41;;;37.23;16.81
61086;BME280;46967;48.876;2.136;2024-02-14T02:10:14;101615.72;;;37.36;16.73
61086;BME280;46967;48.876;2.136;2024-02-14T02:12:39;101616.63;;;37.08;17.00
61086;BME280;46967;48.876;2.136;2024-02-14T02:15:08;101619.97;;;36.69;17.42
61086;BME280;46967;48.876;2.136;2024-02-14T02:17:39;101634.41;;;36.76;17.52
61086;BME280;46967;48.876;2.136;2024-02-14T02:20:05;101628.34;;;36.39;17.83
61086;BME280;46967;48.876;2.136;2024-02-14T02:22:33;101637.06;;;36.41;17.84
61086;BME280;46967;48.876;2.136;2024-02-14T02:25:01;101637.66;;;36.36;17.63
61086;BME280;46967;48.876;2.136;2024-02-14T02:27:27;101633.22;;;36.57;17.60
61086;BME280;46967;48.876;2.136;2024-02-14T02:29:52;101632.81;;;36.88;17.62
61086;BME280;46967;48.876;2.136;2024-02-14T02:32:17;101630.84;;;37.17;17.35
61086;BME280;46967;48.876;2.136;2024-02-14T02:34:43;101643.19;;;37.40;17.16
61086;BME280;46967;48.876;2.136;2024-02-14T02:37:11;101641.56;;;37.45;16.89
61086;BME280;46967;48.876;2.136;2024-02-14T02:39:37;101639.41;;;37.27;17.12
61086;BME280;46967;48.876;2.136;2024-02-14T02:42:03;101640.31;;;36.93;17.17
61086;BME280;46967;48.876;2.136;2024-02-14T02:44:28;101642.31;;;37.26;17.00
61086;BME280;46967;48.876;2.136;2024-02-14T02:46:54;101643.59;;;37.23;17.09
61086;BME280;46967;48.876;2.136;2024-02-14T02:49:21;101637.59;;;37.48;17.03
61086;BME280;46967;48.876;2.136;2024-02-14T02:51:46;101637.69;;;37.75;16.47
61086;BME280;46967;48.876;2.136;2024-02-14T02:54:11;101648.63;;;37.46;16.91
61086;BME280;46967;48.876;2.136;2024-02-14T02:56:37;101648.41;;;37.41;17.14
61086;BME280;46967;48.876;2.136;2024-02-14T02:59:02;101635.56;;;37.63;16.99
61086;BME280;46967;48.876;2.136;2024-02-14T03:01:28;101644.09;;;37.67;16.52
61086;BME280;46967;48.876;2.136;2024-02-14T03:03:56;101642.25;;;37.81;16.66
61086;BME280;46967;48.876;2.136;2024-02-14T03:06:21;101640.19;;;37.96;16.36
61086;BME280;46967;48.876;2.136;2024-02-14T03:08:46;101632.06;;;37.76;16.57
61086;BME280;46967;48.876;2.136;2024-02-14T03:11:15;101637.69;;;38.01;16.34
61086;BME280;46967;48.876;2.136;2024-02-14T03:13:40;101631.81;;;37.58;16.77
61086;BME280;46967;48.876;2.136;2024-02-14T03:16:06;101641.88;;;38.04;16.33
61086;BME280;46967;48.876;2.136;2024-02-14T03:18:32;101637.19;;;37.51;16.56
61086;BME280;46967;48.876;2.136;2024-02-14T03:20:57;101625.59;;;37.70;16.56
61086;BME280;46967;48.876;2.136;2024-02-14T03:23:23;101623.75;;;37.91;16.31
61086;BME280;46967;48.876;2.136;2024-02-14T03:25:48;101627.00;;;37.53;16.91
61086;BME280;46967;48.876;2.136;2024-02-14T03:28:14;101623.34;;;37.19;17.05
61086;BME280;46967;48.876;2.136;2024-02-14T03:30:39;101633.50;;;37.04;17.32
61086;BME280;46967;48.876;2.136;2024-02-14T03:33:05;101630.66;;;36.77;17.51
61086;BME280;46967;48.876;2.136;2024-02-14T03:35:30;101616.41;;;36.96;17.34
61086;BME280;46967;48.876;2.136;2024-02-14T03:37:56;101618.69;;;36.93;17.37
61086;BME280;46967;48.876;2.136;2024-02-14T03:40:21;101621.25;;;36.16;18.01
61086;BME280;46967;48.876;2.136;2024-02-14T03:42:47;101620.66;;;36.42;18.02
61086;BME280;46967;48.876;2.136;2024-02-14T03:45:13;101626.25;;;35.69;18.86
61086;BME280;46967;48.876;2.136;2024-02-14T03:47:39;101624.19;;;36.43;18.19
61086;BME280;46967;48.876;2.136;2024-02-14T03:50:10;101624.28;;;36.56;17.78
61086;BME280;46967;48.876;2.136;2024-02-14T03:52:35;101621.53;;;37.33;17.13
61086;BME280;46967;48.876;2.136;2024-02-14T03:55:01;101619.19;;;36.75;17.80
61086;BME280;46967;48.876;2.136;2024-02-14T03:57:27;101631.38;;;37.54;16.85
61086;BME280;46967;48.876;2.136;2024-02-14T03:59:54;101635.94;;;37.47;17.01
61086;BME280;46967;48.876;2.136;2024-02-14T04:02:21;101636.16;;;37.65;16.79
61086;BME280;46967;48.876;2.136;2024-02-14T04:04:46;101639.34;;;37.69;16.65
61086;BME280;46967;48.876;2.136;2024-02-14T04:07:12;101631.56;;;37.46;16.90
61086;BME280;46967;48.876;2.136;2024-02-14T04:09:38;101628.88;;;37.52;16.92
61086;BME280;46967;48.876;2.136;2024-02-14T04:12:04;101631.97;;;37.43;17.15
61086;BME280;46967;48.876;2.136;2024-02-14T04:14:30;101622.50;;;37.12;17.22
61086;BME280;46967;48.876;2.136;2024-02-14T04:16:56;101635.31;;;36.90;17.57
61086;BME280;46967;48.876;2.136;2024-02-14T04:19:21;101639.53;;;37.06;17.36
61086;BME280;46967;48.876;2.136;2024-02-14T04:21:47;101639.06;;;37.37;17.02
61086;BME280;46967;48.876;2.136;2024-02-14T04:24:12;101639.41;;;36.79;17.58
61086;BME280;46967;48.876;2.136;2024-02-14T04:26:37;101632.06;;;37.14;17.41
61086;BME280;46967;48.876;2.136;2024-02-14T04:29:03;101632.25;;;37.06;17.53
61086;BME280;46967;48.876;2.136;2024-02-14T04:31:28;101625.03;;;37.20;17.27
61086;BME280;46967;48.876;2.136;2024-02-14T04:33:57;101632.38;;;37.40;17.01
61086;BME280;46967;48.876;2.136;2024-02-14T04:36:22;101637.13;;;36.83;17.82
61086;BME280;46967;48.876;2.136;2024-02-14T04:38:51;101629.88;;;36.83;17.81
61086;BME280;46967;48.876;2.136;2024-02-14T04:41:17;101630.28;;;36.87;17.91
61086;BME280;46967;48.876;2.136;2024-02-14T04:43:42;101631.81;;;36.96;17.67
61086;BME280;46967;48.876;2.136;2024-02-14T04:46:08;101629.75;;;37.05;17.62
61086;BME280;46967;48.876;2.136;2024-02-14T04:48:36;101627.50;;;37.77;17.10
61086;BME280;46967;48.876;2.136;2024-02-14T04:51:03;101635.75;;;37.48;17.44
61086;BME280;46967;48.876;2.136;2024-02-14T04:53:30;101622.44;;;37.67;17.15
61086;BME280;46967;48.876;2.136;2024-02-14T04:55:55;101626.44;;;37.78;16.71
61086;BME280;46967;48.876;2.136;2024-02-14T04:58:20;101625.59;;;37.84;16.81
61086;BME280;46967;48.876;2.136;2024-02-14T05:00:46;101632.69;;;37.92;17.04
61086;BME280;46967;48.876;2.136;2024-02-14T05:03:12;101630.16;;;37.70;17.02
61086;BME280;46967;48.876;2.136;2024-02-14T05:05:37;101631.59;;;37.59;17.11
61086;BME280;46967;48.876;2.136;2024-02-14T05:08:03;101625.34;;;37.65;17.06
61086;BME280;46967;48.876;2.136;2024-02-14T05:10:30;101631.44;;;38.01;16.97
61086;BME280;46967;48.876;2.136;2024-02-14T05:12:56;101637.69;;;37.95;17.11
61086;BME280;46967;48.876;2.136;2024-02-14T05:15:21;101636.56;;;37.56;17.42
61086;BME280;46967;48.876;2.136;2024-02-14T05:17:46;101639.47;;;37.54;17.36
61086;BME280;46967;48.876;2.136;2024-02-14T05:20:12;101639.00;;;37.24;17.72
61086;BME280;46967;48.876;2.136;2024-02-14T05:22:38;101644.75;;;37.82;16.84
61086;BME280;46967;48.876;2.136;2024-02-14T05:25:04;101632.69;;;37.78;17.06
61086;BME280;46967;48.876;2.136;2024-02-14T05:27:30;101635.75;;;37.00;17.98
61086;BME280;46967;48.876;2.136;2024-02-14T05:29:55;101631.91;;;36.81;17.78
61086;BME280;46967;48.876;2.136;2024-02-14T05:32:21;101624.25;;;37.26;17.81
61086;BME280;46967;48.876;2.136;2024-02-14T05:34:46;101625.34;;;36.97;17.87
61086;BME280;46967;48.876;2.136;2024-02-14T05:37:11;101620.13;;;37.37;17.60
61086;BME280;46967;48.876;2.136;2024-02-14T05:39:37;101612.47;;;36.99;17.92
61086;BME280;46967;48.876;2.136;2024-02-14T05:42:02;101607.59;;;37.36;17.84
61086;BME280;46967;48.876;2.136;2024-02-14T05:44:29;101608.88;;;36.92;18.06
61086;BME280;46967;48.876;2.136;2024-02-14T05:46:55;101614.91;;;37.56;17.90
61086;BME280;46967;48.876;2.136;2024-02-14T05:49:21;101615.59;;;37.71;17.47
61086;BME280;46967;48.876;2.136;2024-02-14T05:51:47;101623.50;;;37.59;17.59
61086;BME280;46967;48.876;2.136;2024-02-14T05:54:12;101616.91;;;37.20;18.00
61086;BME280;46967;48.876;2.136;2024-02-14T05:56:37;101621.13;;;36.88;18.19
61086;BME280;46967;48.876;2.136;2024-02-14T05:59:03;101613.91;;;37.63;17.45
61086;BME280;46967;48.876;2.136;2024-02-14T06:01:28;101620.13;;;37.64;17.73
61086;BME280;46967;48.876;2.136;2024-02-14T06:03:54;101621.50;;;37.20;17.72
61086;BME280;46967;48.876;2.136;2024-02-14T06:06:19;101622.97;;;36.74;18.38
61086;BME280;46967;48.876;2.136;2024-02-14T06:08:44;101625.19;;;37.12;18.02
61086;BME280;46967;48.876;2.136;2024-02-14T06:11:10;101626.78;;;36.58;18.64
61086;BME280;46967;48.876;2.136;2024-02-14T06:13:37;101624.88;;;36.23;18.88
61086;BME280;46967;48.876;2.136;2024-02-14T06:16:03;101627.41;;;36.88;18.27
61086;BME280;46967;48.876;2.136;2024-02-14T06:18:28;101628.47;;;36.31;18.83
61086;BME280;46967;48.876;2.136;2024-02-14T06:20:53;101635.63;;;36.17;19.22
61086;BME280;46967;48.876;2.136;2024-02-14T06:23:19;101628.72;;;36.71;18.58
61086;BME280;46967;48.876;2.136;2024-02-14T06:25:44;101639.34;;;37.07;18.22
61086;BME280;46967;48.876;2.136;2024-02-14T06:28:09;101640.88;;;37.30;18.10
61086;BME280;46967;48.876;2.136;2024-02-14T06:30:35;101642.94;;;36.51;18.74
61086;BME280;46967;48.876;2.136;2024-02-14T06:33:00;101644.63;;;36.80;18.37
61086;BME280;46967;48.876;2.136;2024-02-14T06:35:27;101641.00;;;36.38;18.95
61086;BME280;46967;48.876;2.136;2024-02-14T06:37:53;101641.75;;;37.37;17.95
61086;BME280;46967;48.876;2.136;2024-02-14T06:40:19;101646.03;;;37.18;18.29
61086;BME280;46967;48.876;2.136;2024-02-14T06:42:44;101653.06;;;37.67;17.52
61086;BME280;46967;48.876;2.136;2024-02-14T06:45:09;101654.69;;;36.65;18.75
61086;BME280;46967;48.876;2.136;2024-02-14T06:47:35;101651.41;;;37.73;17.71
61086;BME280;46967;48.876;2.136;2024-02-14T06:50:00;101647.59;;;37.54;17.71
61086;BME280;46967;48.876;2.136;2024-02-14T06:52:26;101661.38;;;37.66;17.68
61086;BME280;46967;48.876;2.136;2024-02-14T06:54:51;101665.75;;;37.67;17.75
61086;BME280;46967;48.876;2.136;2024-02-14T06:57:16;101671.88;;;38.22;17.39
61086;BME280;46967;48.876;2.136;2024-02-14T06:59:43;101664.22;;;37.31;18.22
61086;BME280;46967;48.876;2.136;2024-02-14T07:02:08;101679.59;;;38.19;17.54
61086;BME280;46967;48.876;2.136;2024-02-14T07:04:33;101672.31;;;38.33;17.19
61086;BME280;46967;48.876;2.136;2024-02-14T07:06:59;101681.66;;;38.64;16.81
61086;BME280;46967;48.876;2.136;2024-02-14T07:09:25;101665.56;;;38.82;16.77
61086;BME280;46967;48.876;2.136;2024-02-14T07:11:51;101678.13;;;38.63;17.10
61086;BME280;46967;48.876;2.136;2024-02-14T07:14:19;101674.56;;;38.02;17.49
61086;BME280;46967;48.876;2.136;2024-02-14T07:16:44;101669.78;;;38.58;16.86
61086;BME280;46967;48.876;2.136;2024-02-14T07:19:09;101654.56;;;38.70;16.89
61086;BME280;46967;48.876;2.136;2024-02-14T07:21:34;101659.66;;;37.45;18.10
61086;BME280;46967;48.876;2.136;2024-02-14T07:24:00;101673.34;;;38.12;17.30
61086;BME280;46967;48.876;2.136;2024-02-14T07:26:25;101678.91;;;38.84;16.76
61086;BME280;46967;48.876;2.136;2024-02-14T07:28:50;101690.66;;;38.37;17.41
61086;BME280;46967;48.876;2.136;2024-02-14T07:31:16;101699.13;;;38.81;16.80
61086;BME280;46967;48.876;2.136;2024-02-14T07:33:42;101691.16;;;39.00;16.88
61086;BME280;46967;48.876;2.136;2024-02-14T07:36:08;101699.91;;;39.15;16.60
61086;BME280;46967;48.876;2.136;2024-02-14T07:38:34;101709.56;;;38.84;16.87
61086;BME280;46967;48.876;2.136;2024-02-14T07:40:59;101712.72;;;38.48;16.90
61086;BME280;46967;48.876;2.136;2024-02-14T07:43:24;101722.34;;;38.44;17.36
61086;BME280;46967;48.876;2.136;2024-02-14T07:45:50;101717.63;;;39.18;16.24
61086;BME280;46967;48.876;2.136;2024-02-14T07:48:15;101720.97;;;39.06;16.48
61086;BME280;46967;48.876;2.136;2024-02-14T07:50:40;101715.16;;;39.03;16.67
61086;BME280;46967;48.876;2.136;2024-02-14T07:53:06;101707.59;;;39.25;16.40
61086;BME280;46967;48.876;2.136;2024-02-14T07:55:31;101707.66;;;38.98;16.65
61086;BME280;46967;48.876;2.136;2024-02-14T07:57:56;101709.31;;;39.51;16.29
61086;BME280;46967;48.876;2.136;2024-02-14T08:00:22;101710.22;;;39.45;16.13
61086;BME280;46967;48.876;2.136;2024-02-14T08:02:51;101716.28;;;39.34;16.10
61086;BME280;46967;48.876;2.136;2024-02-14T08:05:17;101696.78;;;39.11;16.74
61086;BME280;46967;48.876;2.136;2024-02-14T08:07:42;101702.72;;;39.34;16.42
61086;BME280;46967;48.876;2.136;2024-02-14T08:10:08;101707.50;;;39.38;16.57
61086;BME280;46967;48.876;2.136;2024-02-14T08:12:34;101711.88;;;39.84;16.10
61086;BME280;46967;48.876;2.136;2024-02-14T08:14:59;101713.25;;;39.62;16.02
61086;BME280;46967;48.876;2.136;2024-02-14T08:17:29;101715.19;;;39.48;16.51
61086;BME280;46967;48.876;2.136;2024-02-14T08:19:54;101714.34;;;39.54;16.19
61086;BME280;46967;48.876;2.136;2024-02-14T08:22:20;101713.47;;;39.99;15.84
61086;BME280;46967;48.876;2.136;2024-02-14T08:24:46;101710.41;;;39.82;16.36
61086;BME280;46967;48.876;2.136;2024-02-14T08:27:11;101726.78;;;39.68;16.49
61086;BME280;46967;48.876;2.136;2024-02-14T08:29:36;101725.84;;;39.56;16.42
61086;BME280;46967;48.876;2.136;2024-02-14T08:32:02;101735.19;;;39.08;16.96
61086;BME280;46967;48.876;2.136;2024-02-14T08:34:28;101741.31;;;38.70;17.03
61086;BME280;46967;48.876;2.136;2024-02-14T08:36:54;101726.91;;;38.56;17.42
61086;BME280;46967;48.876;2.136;2024-02-14T08:39:19;101716.53;;;39.25;16.48
61086;BME280;46967;48.876;2.136;2024-02-14T08:41:45;101724.31;;;39.15;16.98
61086;BME280;46967;48.876;2.136;2024-02-14T08:44:15;101717.34;;;39.78;16.16
61086;BME280;46967;48.876;2.136;2024-02-14T08:46:40;101717.78;;;40.07;15.84
61086;BME280;46967;48.876;2.136;2024-02-14T08:49:07;101705.09;;;40.00;15.84
61086;BME280;46967;48.876;2.136;2024-02-14T08:51:37;101714.53;;;39.07;16.73
61086;BME280;46967;48.876;2.136;2024-02-14T08:54:04;101715.97;;;39.17;16.80
61086;BME280;46967;48.876;2.136;2024-02-14T08:56:31;101716.41;;;38.93;17.10
61086;BME280;46967;48.876;2.136;2024-02-14T08:59:02;101727.47;;;38.92;16.90
61086;BME280;46967;48.876;2.136;2024-02-14T09:01:30;101744.38;;;39.01;17.00
61086;BME280;46967;48.876;2.136;2024-02-14T09:03:56;101756.09;;;38.54;17.56
61086;BME280;46967;48.876;2.136;2024-02-14T09:06:22;101739.63;;;39.55;16.59
61086;BME280;46967;48.876;2.136;2024-02-14T09:08:48;101748.31;;;39.18;16.96
61086;BME280;46967;48.876;2.136;2024-02-14T09:11:15;101746.25;;;39.13;16.93
61086;BME280;46967;48.876;2.136;2024-02-14T09:13:41;101741.44;;;39.02;17.22
61086;BME280;46967;48.876;2.136;2024-02-14T09:16:08;101743.16;;;38.76;17.49
61086;BME280;46967;48.876;2.136;2024-02-14T09:18:33;101739.63;;;39.55;16.91
61086;BME280;46967;48.876;2.136;2024-02-14T09:20:58;101740.28;;;39.43;16.64
61086;BME280;46967;48.876;2.136;2024-02-14T09:23:24;101745.69;;;38.65;17.35
61086;BME280;46967;48.876;2.136;2024-02-14T09:25:49;101742.53;;;38.88;17.06
61086;BME280;46967;48.876;2.136;2024-02-14T09:28:18;101750.69;;;38.54;17.56
61086;BME280;46967;48.876;2.136;2024-02-14T09:30:44;101743.50;;;39.00;17.48
61086;BME280;46967;48.876;2.136;2024-02-14T09:33:10;101736.22;;;39.66;16.93
61086;BME280;46967;48.876;2.136;2024-02-14T09:35:36;101738.22;;;39.77;16.56
61086;BME280;46967;48.876;2.136;2024-02-14T09:38:04;101731.94;;;39.38;16.76
61086;BME280;46967;48.876;2.136;2024-02-14T09:40:29;101729.09;;;39.06;17.03
61086;BME280;46967;48.876;2.136;2024-02-14T09:42:56;101729.41;;;38.58;17.53
61086;BME280;46967;48.876;2.136;2024-02-14T09:45:26;101725.63;;;39.58;16.76
61086;BME280;46967;48.876;2.136;2024-02-14T09:47:53;101726.03;;;38.56;17.83
61086;BME280;46967;48.876;2.136;2024-02-14T09:50:19;101732.44;;;39.02;17.17
61086;BME280;46967;48.876;2.136;2024-02-14T09:52:47;101721.00;;;39.58;16.75
61086;BME280;46967;48.876;2.136;2024-02-14T09:55:14;101712.81;;;39.06;17.35
61086;BME280;46967;48.876;2.136;2024-02-14T09:57:41;101723.41;;;40.62;16.06
61086;BME280;46967;48.876;2.136;2024-02-14T10:00:09;101726.47;;;40.91;15.59
61086;BME280;46967;48.876;2.136;2024-02-14T10:02:35;101735.44;;;39.97;16.52
61086;BME280;46967;48.876;2.136;2024-02-14T10:05:01;101724.44;;;40.11;16.33
61086;BME280;46967;48.876;2.136;2024-02-14T10:07:27;101731.88;;;38.93;17.50
61086;BME280;46967;48.876;2.136;2024-02-14T10:09:52;101726.50;;;39.38;17.14
61086;BME280;46967;48.876;2.136;2024-02-14T10:12:19;101716.56;;;40.02;16.68
61086;BME280;46967;48.876;2.136;2024-02-14T10:14:44;101728.50;;;39.04;17.38
61086;BME280;46967;48.876;2.136;2024-02-14T10:17:17;101722.78;;;39.33;16.93
61086;BME280;46967;48.876;2.136;2024-02-14T10:19:43;101725.19;;;39.54;16.85
61086;BME280;46967;48.876;2.136;2024-02-14T10:22:08;101734.06;;;40.13;16.26
61086;BME280;46967;48.876;2.136;2024-02-14T10:24:34;101733.94;;;40.27;16.54
61086;BME280;46967;48.876;2.136;2024-02-14T10:26:59;101755.34;;;39.78;16.52
61086;BME280;46967;48.876;2.136;2024-02-14T10:29:25;101754.78;;;40.33;15.98
61086;BME280;46967;48.876;2.136;2024-02-14T10:31:51;101760.06;;;39.57;16.64
61086;BME280;46967;48.876;2.136;2024-02-14T10:34:18;101755.94;;;39.87;16.42
61086;BME280;46967;48.876;2.136;2024-02-14T10:36:45;101759.22;;;38.31;18.22
61086;BME280;46967;48.876;2.136;2024-02-14T10:39:11;101756.22;;;39.72;16.99
61086;BME280;46967;48.876;2.136;2024-02-14T10:41:37;101757.34;;;40.28;16.59
61086;BME280;46967;48.876;2.136;2024-02-14T10:44:03;101764.19;;;40.81;15.96
61086;BME280;46967;48.876;2.136;2024-02-14T10:46:32;101775.94;;;40.81;15.91
61086;BME280;46967;48.876;2.136;2024-02-14T10:49:05;101781.28;;;39.74;17.12
61086;BME280;46967;48.876;2.136;2024-02-14T10:51:32;101789.22;;;40.14;16.90
61086;BME280;46967;48.876;2.136;2024-02-14T10:54:04;101788.06;;;41.04;15.85
61086;BME280;46967;48.876;2.136;2024-02-14T10:56:31;101791.59;;;40.29;16.72
61086;BME280;46967;48.876;2.136;2024-02-14T10:58:57;101781.09;;;40.39;16.14
61086;BME280;46967;48.876;2.136;2024-02-14T11:01:24;101787.09;;;40.23;16.72
61086;BME280;46967;48.876;2.136;2024-02-14T11:03:51;101784.84;;;40.38;16.45
61086;BME280;46967;48.876;2.136;2024-02-14T11:06:17;101781.53;;;40.36;16.50
61086;BME280;46967;48.876;2.136;2024-02-14T11:08:56;101780.94;;;41.03;16.21
61086;BME280;46967;48.876;2.136;2024-02-14T11:11:21;101776.97;;;41.05;15.79
61086;BME280;46967;48.876;2.136;2024-02-14T11:13:52;101777.63;;;41.56;15.79
61086;BME280;46967;48.876;2.136;2024-02-14T11:16:18;101774.00;;;41.07;16.11
61086;BME280;46967;48.876;2.136;2024-02-14T11:18:47;101765.75;;;40.51;16.03
61086;BME280;46967;48.876;2.136;2024-02-14T11:21:16;101767.25;;;41.09;15.95
61086;BME280;46967;48.876;2.136;2024-02-14T11:23:52;101766.63;;;40.70;16.08
61086;BME280;46967;48.876;2.136;2024-02-14T11:26:18;101769.47;;;39.93;16.66
61086;BME280;46967;48.876;2.136;2024-02-14T11:28:43;101763.53;;;41.29;15.78
61086;BME280;46967;48.876;2.136;2024-02-14T11:31:10;101768.31;;;40.39;16.25
61086;BME280;46967;48.876;2.136;2024-02-14T11:33:35;101762.28;;;40.88;15.97
61086;BME280;46967;48.876;2.136;2024-02-14T11:36:08;101763.94;;;40.64;15.87
61086;BME280;46967;48.876;2.136;2024-02-14T11:38:36;101773.16;;;41.25;15.46
61086;BME280;46967;48.876;2.136;2024-02-14T11:41:02;101766.69;;;40.82;16.14
61086;BME280;46967;48.876;2.136;2024-02-14T11:43:29;101764.94;;;41.80;15.05
61086;BME280;46967;48.876;2.136;2024-02-14T11:45:54;101766.19;;;41.47;15.49
61086;BME280;46967;48.876;2.136;2024-02-14T11:48:21;101771.56;;;41.17;15.80
61086;BME280;46967;48.876;2.136;2024-02-14T11:50:47;101768.00;;;40.80;16.03
61086;BME280;46967;48.876;2.136;2024-02-14T11:53:14;101764.19;;;42.04;14.92
61086;BME280;46967;48.876;2.136;2024-02-14T11:55:41;101753.88;;;41.08;15.76
61086;BME280;46967;48.876;2.136;2024-02-14T11:58:10;101737.63;;;41.20;15.74
61086;BME280;46967;48.876;2.136;2024-02-14T12:00:40;101748.81;;;41.79;15.43
61086;BME280;46967;48.876;2.136;2024-02-14T12:03:07;101746.66;;;42.11;14.63
61086;BME280;46967;48.876;2.136;2024-02-14T12:05:33;101749.19;;;42.36;14.62
61086;BME280;46967;48.876;2.136;2024-02-14T12:08:00;101750.28;;;42.35;14.61
61086;BME280;46967;48.876;2.136;2024-02-14T12:10:26;101750.19;;;41.02;15.60
61086;BME280;46967;48.876;2.136;2024-02-14T12:12:51;101755.00;;;41.56;15.07
61086;BME280;46967;48.876;2.136;2024-02-14T12:15:16;101749.41;;;41.81;14.90
61086;BME280;46967;48.876;2.136;2024-02-14T12:17:42;101754.66;;;42.48;14.71
61086;BME280;46967;48.876;2.136;2024-02-14T12:20:11;101749.06;;;41.77;15.08
61086;BME280;46967;48.876;2.136;2024-02-14T12:22:39;101731.22;;;41.63;15.47
61086;BME280;46967;48.876;2.136;2024-02-14T12:25:08;101734.13;;;42.22;14.49
61086;BME280;46967;48.876;2.136;2024-02-14T12:27:36;101737.16;;;41.41;15.32
61086;BME280;46967;48.876;2.136;2024-02-14T12:30:07;101745.31;;;41.90;14.82
61086;BME280;46967;48.876;2.136;2024-02-14T12:32:33;101741.28;;;41.93;14.67
61086;BME280;46967;48.876;2.136;2024-02-14T12:34:59;101743.38;;;41.79;14.66
61086;BME280;46967;48.876;2.136;2024-02-14T12:37:25;101746.59;;;42.53;14.66
61086;BME280;46967;48.876;2.136;2024-02-14T12:39:50;101756.94;;;42.75;14.36
61086;BME280;46967;48.876;2.136;2024-02-14T12:42:15;101753.09;;;42.17;14.75
61086;BME280;46967;48.876;2.136;2024-02-14T12:44:43;101750.28;;;39.88;16.38